createdAt,value
2017-12-14T00:00:34.045Z,5.10
2017-12-14T00:03:01.533Z,4.27
2017-12-14T00:05:29.769Z,2.90
2017-12-14T00:07:57.265Z,2.90
2017-12-14T00:10:37.532Z,4.10
2017-12-14T00:13:05.022Z,3.60
2017-12-14T00:15:32.496Z,3.00
2017-12-14T00:17:59.980Z,2.83
2017-12-14T00:20:28.221Z,2.63
2017-12-14T00:22:55.704Z,2.20
2017-12-14T00:25:23.952Z,3.20
2017-12-14T00:27:51.437Z,2.73
2017-12-14T00:30:19.671Z,2.77
2017-12-14T00:32:47.133Z,2.40
2017-12-14T00:35:14.620Z,2.70
2017-12-14T00:37:42.092Z,3.17
2017-12-14T00:40:09.589Z,3.00
2017-12-14T00:42:37.784Z,2.70
2017-12-14T00:45:05.284Z,2.90
2017-12-14T00:47:33.515Z,3.13
2017-12-14T00:50:00.993Z,3.87
2017-12-14T00:52:28.469Z,3.53
2017-12-14T00:54:56.705Z,3.40
2017-12-14T00:57:24.191Z,3.10
2017-12-14T00:59:52.434Z,3.03
2017-12-14T01:02:19.929Z,3.90
2017-12-14T01:04:48.988Z,3.83
2017-12-14T01:07:16.471Z,3.73
2017-12-14T01:09:44.716Z,3.53
2017-12-14T01:12:12.180Z,2.97
2017-12-14T01:14:39.652Z,3.03
2017-12-14T01:17:07.890Z,2.97
2017-12-14T01:19:35.382Z,3.13
2017-12-14T01:22:02.838Z,2.90
2017-12-14T01:24:31.066Z,3.30
2017-12-14T01:26:58.556Z,3.13
2017-12-14T01:29:26.026Z,2.80
2017-12-14T01:31:54.274Z,4.00
2017-12-14T01:34:21.731Z,3.23
2017-12-14T01:36:49.203Z,3.17
2017-12-14T01:39:16.662Z,4.00
2017-12-14T01:41:44.143Z,3.70
2017-12-14T01:44:12.631Z,3.20
2017-12-14T01:46:40.846Z,3.30
2017-12-14T01:49:08.319Z,3.40
2017-12-14T01:51:35.779Z,2.93
2017-12-14T01:54:03.235Z,2.90
2017-12-14T01:56:30.701Z,3.73
2017-12-14T01:58:58.160Z,3.10
2017-12-14T02:01:25.627Z,3.00
2017-12-14T02:03:53.861Z,2.50
2017-12-14T02:06:21.334Z,2.27
2017-12-14T02:08:48.805Z,1.80
2017-12-14T02:11:17.026Z,2.40
2017-12-14T02:13:44.527Z,2.27
2017-12-14T02:16:11.995Z,1.90
2017-12-14T02:18:40.238Z,2.07
2017-12-14T02:21:07.698Z,1.70
2017-12-14T02:23:35.164Z,1.87
2017-12-14T02:26:02.626Z,2.30
2017-12-14T02:28:30.099Z,2.10
2017-12-14T02:30:58.356Z,1.80
2017-12-14T02:33:26.413Z,1.33
2017-12-14T02:35:53.883Z,1.50
2017-12-14T02:38:21.339Z,1.33
2017-12-14T02:40:48.815Z,1.40
2017-12-14T02:43:17.042Z,1.30
2017-12-14T02:45:44.518Z,1.77
2017-12-14T02:48:11.988Z,1.43
2017-12-14T02:50:39.454Z,1.10
2017-12-14T02:53:06.917Z,1.13
2017-12-14T02:55:35.147Z,1.13
2017-12-14T02:58:02.626Z,1.03
2017-12-14T03:00:30.102Z,1.00
2017-12-14T03:02:58.331Z,1.03
2017-12-14T03:05:25.798Z,1.20
2017-12-14T03:07:53.258Z,1.10
2017-12-14T03:10:20.735Z,1.40
2017-12-14T03:12:48.201Z,1.20
2017-12-14T03:15:17.912Z,1.30
2017-12-14T03:17:46.127Z,1.50
2017-12-14T03:20:13.590Z,1.57
2017-12-14T03:22:41.062Z,1.53
2017-12-14T03:25:08.559Z,1.80
2017-12-14T03:27:36.023Z,2.33
2017-12-14T03:30:04.247Z,2.37
2017-12-14T03:32:31.702Z,3.17
2017-12-14T03:34:59.182Z,2.20
2017-12-14T03:37:26.643Z,2.73
2017-12-14T03:39:54.098Z,2.73
2017-12-14T03:42:21.567Z,2.77
2017-12-14T03:44:49.811Z,3.60
2017-12-14T03:47:17.298Z,4.33
2017-12-14T03:49:45.542Z,4.73
2017-12-14T03:52:12.999Z,5.10
2017-12-14T03:54:40.524Z,5.30
2017-12-14T03:57:07.946Z,5.40
2017-12-14T03:59:36.178Z,5.47
2017-12-14T04:02:03.655Z,5.63
2017-12-14T04:04:31.903Z,6.13
2017-12-14T04:06:59.378Z,6.43
2017-12-14T04:09:26.835Z,6.20
2017-12-14T04:11:54.317Z,7.53
2017-12-14T04:14:22.543Z,6.20
2017-12-14T04:16:50.010Z,5.13
2017-12-14T04:19:17.474Z,3.30
2017-12-14T04:21:45.060Z,2.50
2017-12-14T04:24:13.298Z,2.80
2017-12-14T04:26:40.756Z,2.80
2017-12-14T04:29:08.244Z,3.60
2017-12-14T04:31:35.691Z,2.23
2017-12-14T04:34:03.149Z,2.50
2017-12-14T04:36:31.875Z,2.30
2017-12-14T04:38:59.318Z,2.03
2017-12-14T04:41:27.555Z,1.40
2017-12-14T04:43:55.011Z,1.73
2017-12-14T04:46:22.493Z,1.47
2017-12-14T04:48:50.705Z,2.03
2017-12-14T04:51:18.194Z,1.70
2017-12-14T04:53:45.653Z,1.83
2017-12-14T04:56:13.143Z,1.67
2017-12-14T04:58:41.451Z,1.60
2017-12-14T05:01:08.907Z,2.17
2017-12-14T05:03:36.375Z,2.00
2017-12-14T05:06:03.838Z,2.00
2017-12-14T05:08:31.310Z,1.97
2017-12-14T05:10:58.763Z,2.40
2017-12-14T05:13:26.967Z,1.97
2017-12-14T05:15:54.419Z,2.57
2017-12-14T05:18:22.669Z,1.90
2017-12-14T05:20:50.127Z,2.33
2017-12-14T05:23:17.704Z,2.57
2017-12-14T05:25:45.154Z,2.90
2017-12-14T05:28:12.627Z,3.00
2017-12-14T05:30:40.846Z,3.10
2017-12-14T05:33:08.316Z,3.57
2017-12-14T05:35:35.786Z,4.00
2017-12-14T05:38:03.250Z,4.13
2017-12-14T05:40:30.729Z,3.70
2017-12-14T05:42:58.989Z,4.33
2017-12-14T05:45:26.486Z,5.20
2017-12-14T05:47:53.940Z,3.60
2017-12-14T05:50:21.406Z,3.90
2017-12-14T05:52:48.863Z,3.83
2017-12-14T05:55:16.343Z,4.73
2017-12-14T05:57:43.825Z,4.10
2017-12-14T06:00:11.296Z,4.97
2017-12-14T06:02:39.519Z,5.40
2017-12-14T06:05:06.979Z,5.40
2017-12-14T06:07:34.527Z,5.50
2017-12-14T06:10:01.994Z,6.33
2017-12-14T06:12:29.459Z,6.10
2017-12-14T06:14:56.910Z,5.93
2017-12-14T06:17:24.398Z,5.60
2017-12-14T06:19:51.866Z,4.67
2017-12-14T06:22:20.096Z,5.43
2017-12-14T06:24:47.561Z,4.23
2017-12-14T06:27:15.046Z,5.13
2017-12-14T06:29:42.515Z,3.77
2017-12-14T06:32:10.752Z,4.60
2017-12-14T06:34:38.231Z,4.23
2017-12-14T06:37:05.689Z,4.70
2017-12-14T06:39:33.938Z,5.23
2017-12-14T06:42:01.424Z,5.60
2017-12-14T06:44:29.635Z,5.13
2017-12-14T06:46:57.130Z,3.13
2017-12-14T06:49:24.611Z,2.87
2017-12-14T06:51:52.066Z,3.20
2017-12-14T06:54:19.538Z,2.90
2017-12-14T06:56:47.766Z,3.00
2017-12-14T06:59:15.238Z,2.73
2017-12-14T07:01:42.699Z,2.93
2017-12-14T07:04:10.159Z,3.63
2017-12-14T07:06:37.634Z,3.10
2017-12-14T07:09:05.865Z,3.00
2017-12-14T07:11:33.330Z,2.50
2017-12-14T07:14:00.822Z,2.60
2017-12-14T07:16:29.043Z,2.70
2017-12-14T07:18:56.554Z,2.40
2017-12-14T07:21:24.034Z,3.60
2017-12-14T07:23:51.506Z,2.90
2017-12-14T07:26:18.978Z,2.33
2017-12-14T07:28:46.448Z,2.43
2017-12-14T07:31:13.915Z,2.70
2017-12-14T07:33:41.393Z,2.80
2017-12-14T07:36:08.858Z,2.17
2017-12-14T07:38:37.099Z,2.37
2017-12-14T07:41:04.582Z,1.93
2017-12-14T07:43:32.811Z,2.50
2017-12-14T07:49:17.555Z,2.30
2017-12-14T07:51:45.038Z,2.60
2017-12-14T07:54:12.499Z,2.50
2017-12-14T07:56:39.979Z,3.03
2017-12-14T07:59:07.438Z,1.90
2017-12-14T08:01:34.907Z,1.57
2017-12-14T08:04:02.383Z,2.87
2017-12-14T08:06:30.606Z,2.33
2017-12-14T08:08:58.075Z,2.67
2017-12-14T08:11:25.564Z,2.23
2017-12-14T08:13:53.803Z,3.00
2017-12-14T08:16:21.262Z,2.40
2017-12-14T08:18:50.503Z,2.20
2017-12-14T08:21:18.769Z,1.57
2017-12-14T08:23:46.987Z,2.00
2017-12-14T08:26:14.465Z,2.10
2017-12-14T08:28:41.932Z,2.20
2017-12-14T08:31:09.407Z,2.50
2017-12-14T08:33:37.640Z,2.33
2017-12-14T08:36:05.095Z,2.57
2017-12-14T08:38:32.567Z,2.33
2017-12-14T08:41:00.045Z,2.40
2017-12-14T08:43:27.530Z,2.40
2017-12-14T08:45:54.995Z,2.60
2017-12-14T08:48:22.462Z,2.00
2017-12-14T08:50:49.948Z,2.90
2017-12-14T08:53:17.442Z,3.17
2017-12-14T08:55:45.683Z,2.63
2017-12-14T08:58:13.145Z,3.00
2017-12-14T09:00:40.623Z,3.07
2017-12-14T09:03:08.875Z,3.37
2017-12-14T09:05:36.342Z,3.20
2017-12-14T09:08:03.803Z,3.10
2017-12-14T09:10:31.310Z,2.87
2017-12-14T09:12:58.774Z,2.77
2017-12-14T09:15:26.232Z,3.07
2017-12-14T09:17:53.718Z,4.57
2017-12-14T09:20:21.195Z,3.27
2017-12-14T09:22:49.426Z,3.20
2017-12-14T09:25:16.903Z,2.67
2017-12-14T09:27:44.376Z,2.93
2017-12-14T09:30:11.839Z,2.93
2017-12-14T09:32:40.081Z,3.03
2017-12-14T09:35:07.570Z,2.20
2017-12-14T09:37:35.822Z,3.00
2017-12-14T09:40:03.312Z,3.63
2017-12-14T09:42:31.555Z,2.17
2017-12-14T09:44:59.015Z,3.33
2017-12-14T09:47:26.494Z,2.10
2017-12-14T09:49:54.743Z,1.90
2017-12-14T09:52:22.220Z,2.57
2017-12-14T09:54:50.454Z,2.33
2017-12-14T09:57:17.940Z,2.30
2017-12-14T09:59:46.174Z,1.90
2017-12-14T10:02:13.642Z,1.67
2017-12-14T10:04:41.111Z,1.53
2017-12-14T10:07:08.578Z,1.53
2017-12-14T10:09:36.051Z,1.47
2017-12-14T10:12:04.290Z,1.50
2017-12-14T10:14:31.759Z,2.30
2017-12-14T10:16:59.263Z,1.20
2017-12-14T10:19:26.723Z,1.40
2017-12-14T10:21:54.195Z,1.30
2017-12-14T10:24:21.675Z,1.47
2017-12-14T10:26:49.114Z,1.23
2017-12-14T10:29:16.606Z,1.43
2017-12-14T10:31:44.075Z,1.27
2017-12-14T10:34:11.518Z,1.40
2017-12-14T10:36:38.995Z,1.57
2017-12-14T10:39:08.135Z,1.20
2017-12-14T10:41:35.587Z,1.40
2017-12-14T10:44:03.056Z,1.50
2017-12-14T10:46:30.571Z,1.63
2017-12-14T10:48:58.803Z,1.30
2017-12-14T10:51:26.278Z,1.10
2017-12-14T10:53:53.755Z,1.70
2017-12-14T10:56:21.983Z,1.30
2017-12-14T10:58:49.479Z,1.77
2017-12-14T11:01:23.479Z,1.67
2017-12-14T11:03:50.944Z,1.60
2017-12-14T11:06:18.416Z,1.40
2017-12-14T11:08:46.643Z,1.40
2017-12-14T11:11:14.122Z,1.90
2017-12-14T11:13:42.365Z,2.00
2017-12-14T11:16:09.830Z,1.87
2017-12-14T11:18:37.299Z,1.50
2017-12-14T11:21:04.786Z,1.80
2017-12-14T11:23:33.030Z,1.50
2017-12-14T11:26:00.503Z,1.50
2017-12-14T11:28:27.947Z,1.57
2017-12-14T11:30:55.439Z,1.20
2017-12-14T11:33:22.902Z,1.60
2017-12-14T11:35:50.422Z,1.97
2017-12-14T11:38:17.895Z,1.83
2017-12-14T11:40:45.359Z,1.90
2017-12-14T11:43:13.587Z,1.20
2017-12-14T11:45:41.071Z,1.60
2017-12-14T11:48:08.550Z,1.70
2017-12-14T11:50:36.010Z,1.70
2017-12-14T11:53:03.484Z,1.97
2017-12-14T11:55:30.967Z,2.80
2017-12-14T11:57:58.437Z,1.57
2017-12-14T12:00:25.903Z,2.07
2017-12-14T12:02:53.366Z,2.33
2017-12-14T12:05:20.837Z,2.60
2017-12-14T12:07:49.091Z,1.70
2017-12-14T12:10:16.568Z,2.20
2017-12-14T12:12:44.800Z,2.03
2017-12-14T12:15:12.263Z,2.27
2017-12-14T12:17:39.746Z,2.63
2017-12-14T12:20:07.970Z,1.63
2017-12-14T12:22:35.434Z,1.53
2017-12-14T12:25:02.907Z,2.00
2017-12-14T12:27:30.418Z,1.83
2017-12-14T12:29:57.879Z,1.70
2017-12-14T12:32:25.343Z,1.60
2017-12-14T12:34:52.807Z,1.90
2017-12-14T12:37:20.264Z,1.93
2017-12-14T12:39:47.732Z,2.13
2017-12-14T12:42:15.214Z,2.70
2017-12-14T12:44:42.676Z,2.30
2017-12-14T12:47:10.151Z,2.00
2017-12-14T12:49:38.376Z,1.77
2017-12-14T12:52:05.876Z,1.43
2017-12-14T12:54:34.115Z,1.30
2017-12-14T12:57:01.584Z,1.40
2017-12-14T12:59:29.914Z,1.40
2017-12-14T13:01:57.383Z,1.50
2017-12-14T13:04:24.860Z,1.30
2017-12-14T13:06:52.338Z,1.30
2017-12-14T13:09:20.567Z,1.10
2017-12-14T13:11:48.035Z,1.10
2017-12-14T13:14:15.517Z,1.13
2017-12-14T13:16:42.974Z,1.00
2017-12-14T13:19:10.439Z,1.10
2017-12-14T13:21:37.952Z,1.20
2017-12-14T13:24:05.412Z,1.10
2017-12-14T13:26:32.896Z,1.20
2017-12-14T13:29:00.347Z,1.17
2017-12-14T13:31:27.826Z,1.43
2017-12-14T13:33:56.088Z,1.30
2017-12-14T13:36:23.620Z,1.13
2017-12-14T13:38:51.095Z,1.00
2017-12-14T13:41:18.571Z,1.17
2017-12-14T13:43:46.038Z,1.40
2017-12-14T13:46:14.299Z,1.37
2017-12-14T13:48:41.759Z,1.27
2017-12-14T13:51:09.219Z,1.30
2017-12-14T13:53:36.695Z,1.53
2017-12-14T13:56:04.915Z,1.60
2017-12-14T13:58:32.560Z,1.40
2017-12-14T14:01:00.850Z,2.13
2017-12-14T14:03:28.314Z,1.70
2017-12-14T14:05:55.800Z,1.83
2017-12-14T14:08:23.307Z,1.93
2017-12-14T14:10:53.291Z,1.97
2017-12-14T14:13:24.066Z,1.33
2017-12-14T14:15:51.920Z,2.03
2017-12-14T14:18:19.423Z,1.80
2017-12-14T14:20:52.835Z,2.07
2017-12-14T14:23:21.087Z,1.60
2017-12-14T14:25:49.314Z,1.40
2017-12-14T14:28:16.799Z,1.80
2017-12-14T14:30:44.271Z,1.70
2017-12-14T14:33:11.767Z,2.23
2017-12-14T14:35:39.998Z,1.83
2017-12-14T14:38:07.476Z,1.97
2017-12-14T14:40:35.019Z,1.77
2017-12-14T14:43:02.562Z,1.70
2017-12-14T14:45:30.077Z,1.77
2017-12-14T14:47:58.306Z,1.40
2017-12-14T14:50:25.796Z,2.33
2017-12-14T14:52:54.027Z,1.60
2017-12-14T14:55:21.510Z,1.53
2017-12-14T14:57:48.960Z,1.40
2017-12-14T15:00:16.426Z,1.80
2017-12-14T15:02:43.910Z,1.93
2017-12-14T15:05:12.230Z,2.00
2017-12-14T15:07:39.702Z,1.93
2017-12-14T15:10:07.182Z,1.70
2017-12-14T15:12:35.838Z,2.30
2017-12-14T15:15:03.300Z,1.43
2017-12-14T15:17:30.774Z,1.70
2017-12-14T15:19:59.038Z,1.80
2017-12-14T15:22:26.494Z,1.80
2017-12-14T15:24:54.003Z,1.97
2017-12-14T15:27:21.470Z,1.50
2017-12-14T15:29:48.950Z,1.60
2017-12-14T15:32:16.398Z,1.50
2017-12-14T15:34:43.887Z,1.83
2017-12-14T15:37:11.479Z,1.73
2017-12-14T15:39:38.951Z,2.07
2017-12-14T15:42:06.414Z,1.40
2017-12-14T15:44:33.908Z,1.63
2017-12-14T15:47:01.370Z,1.53
2017-12-14T15:49:28.875Z,1.93
2017-12-14T15:51:56.338Z,1.33
2017-12-14T15:54:23.854Z,1.40
2017-12-14T15:56:52.098Z,1.53
2017-12-14T15:59:19.587Z,2.07
2017-12-14T16:01:47.834Z,1.10
2017-12-14T16:04:15.320Z,1.70
2017-12-14T16:06:43.538Z,1.23
2017-12-14T16:09:11.042Z,1.50
2017-12-14T16:11:38.487Z,1.37
2017-12-14T16:14:05.968Z,1.17
2017-12-14T16:16:34.198Z,1.30
2017-12-14T16:19:01.663Z,1.10
2017-12-14T16:21:29.188Z,1.10
2017-12-14T16:23:56.658Z,1.80
2017-12-14T16:26:24.358Z,1.40
2017-12-14T16:28:52.583Z,1.27
2017-12-14T16:31:20.068Z,1.30
2017-12-14T16:33:47.574Z,2.53
2017-12-14T16:36:15.040Z,1.67
2017-12-14T16:38:42.502Z,2.00
2017-12-14T16:41:09.978Z,1.90
2017-12-14T16:43:37.457Z,2.70
2017-12-14T16:46:04.976Z,1.93
2017-12-14T16:48:32.446Z,1.77
2017-12-14T16:50:59.993Z,2.13
2017-12-14T16:53:27.470Z,1.70
2017-12-14T16:55:54.927Z,1.67
2017-12-14T16:58:22.387Z,1.87
2017-12-14T17:00:49.895Z,1.50
2017-12-14T17:03:17.366Z,1.90
2017-12-14T17:05:44.830Z,1.47
2017-12-14T17:08:12.292Z,1.80
2017-12-14T17:10:39.790Z,2.07
2017-12-14T17:13:08.762Z,1.90
2017-12-14T17:15:36.279Z,1.60
2017-12-14T17:18:03.785Z,1.67
2017-12-14T17:20:31.223Z,2.07
2017-12-14T17:22:58.699Z,2.30
2017-12-14T17:25:26.172Z,2.17
2017-12-14T17:27:53.655Z,1.70
2017-12-14T17:30:21.867Z,1.93
2017-12-14T17:32:49.326Z,2.00
2017-12-14T17:35:16.794Z,1.80
2017-12-14T17:37:44.264Z,2.07
2017-12-14T17:40:11.750Z,2.17
2017-12-14T17:42:39.219Z,2.20
2017-12-14T17:45:06.703Z,2.80
2017-12-14T17:47:34.166Z,2.30
2017-12-14T17:50:01.666Z,2.80
2017-12-14T17:52:29.142Z,1.80
2017-12-14T17:54:57.378Z,2.07
2017-12-14T17:57:24.854Z,1.97
2017-12-14T17:59:53.095Z,2.30
2017-12-14T18:02:20.564Z,2.60
2017-12-14T18:04:48.053Z,3.00
2017-12-14T18:07:16.269Z,3.10
2017-12-14T18:09:43.757Z,2.77
2017-12-14T18:12:11.243Z,2.73
2017-12-14T18:14:39.478Z,3.07
2017-12-14T18:17:06.970Z,2.73
2017-12-14T18:19:35.199Z,2.77
2017-12-14T18:22:02.694Z,2.53
2017-12-14T18:24:30.928Z,3.37
2017-12-14T18:26:58.384Z,3.63
2017-12-14T18:29:25.858Z,4.37
2017-12-14T18:31:53.348Z,4.57
2017-12-14T18:34:21.584Z,5.27
2017-12-14T18:36:49.037Z,5.93
2017-12-14T18:39:16.530Z,4.40
2017-12-14T18:41:44.785Z,4.03
2017-12-14T18:44:12.255Z,4.13
2017-12-14T18:46:40.471Z,3.90
2017-12-14T18:49:07.951Z,3.83
2017-12-14T18:51:35.426Z,4.33
2017-12-14T18:54:02.904Z,4.20
2017-12-14T18:56:31.162Z,6.30
2017-12-14T18:58:58.650Z,5.83
2017-12-14T19:01:26.871Z,5.27
2017-12-14T19:03:54.347Z,7.17
2017-12-14T19:06:21.840Z,6.00
2017-12-14T19:08:49.303Z,5.47
2017-12-14T19:11:16.779Z,5.10
2017-12-14T19:13:44.271Z,5.73
2017-12-14T19:16:11.752Z,6.63
2017-12-14T19:18:39.993Z,6.20
2017-12-14T19:21:07.458Z,5.77
2017-12-14T19:23:34.979Z,6.00
2017-12-14T19:26:02.435Z,6.50
2017-12-14T19:28:29.939Z,5.80
2017-12-14T19:30:57.400Z,5.70
2017-12-14T19:33:25.635Z,5.70
2017-12-14T19:35:53.112Z,6.87
2017-12-14T19:38:20.587Z,5.37
2017-12-14T19:40:48.836Z,5.50
2017-12-14T19:43:16.302Z,5.30
2017-12-14T19:45:43.767Z,5.80
2017-12-14T19:48:11.235Z,6.40
2017-12-14T19:50:39.484Z,7.70
2017-12-14T19:53:08.463Z,8.70
2017-12-14T19:55:35.952Z,7.10
2017-12-14T19:58:04.294Z,4.07
2017-12-14T20:00:31.797Z,3.60
2017-12-14T20:03:00.023Z,3.47
2017-12-14T20:05:27.484Z,3.67
2017-12-14T20:07:54.958Z,3.20
2017-12-14T20:10:22.431Z,2.57
2017-12-14T20:12:49.918Z,2.53
2017-12-14T20:15:17.380Z,2.53
2017-12-14T20:17:44.870Z,2.20
2017-12-14T20:20:12.351Z,2.50
2017-12-14T20:22:39.807Z,2.60
2017-12-14T20:25:07.275Z,2.90
2017-12-14T20:27:35.513Z,2.50
2017-12-14T20:30:02.979Z,1.90
2017-12-14T20:32:30.483Z,2.40
2017-12-14T20:34:58.724Z,2.40
2017-12-14T20:37:26.184Z,3.00
2017-12-14T20:39:53.653Z,2.10
2017-12-14T20:42:21.149Z,3.00
2017-12-14T20:44:48.597Z,2.23
2017-12-14T20:47:16.066Z,3.00
2017-12-14T20:49:43.555Z,3.77
2017-12-14T20:52:13.351Z,2.90
2017-12-14T20:54:40.807Z,2.40
2017-12-14T20:57:08.297Z,2.00
2017-12-14T20:59:35.752Z,2.40
2017-12-14T21:02:03.258Z,3.70
2017-12-14T21:04:30.730Z,2.47
2017-12-14T21:06:58.197Z,3.57
2017-12-14T21:09:25.671Z,2.10
2017-12-14T21:11:53.129Z,2.13
2017-12-14T21:14:20.600Z,2.03
2017-12-14T21:16:48.822Z,2.10
2017-12-14T21:19:16.296Z,2.00
2017-12-14T21:21:43.763Z,2.40
2017-12-14T21:24:11.237Z,1.60
2017-12-14T21:26:39.471Z,1.97
2017-12-14T21:29:06.946Z,1.70
2017-12-14T21:31:34.394Z,1.57
2017-12-14T21:34:01.887Z,1.67
2017-12-14T21:36:30.127Z,1.70
2017-12-14T21:38:57.583Z,1.63
2017-12-14T21:41:25.084Z,1.40
2017-12-14T21:43:53.316Z,2.47
2017-12-14T21:46:20.779Z,4.03
2017-12-14T21:48:48.246Z,1.50
2017-12-14T21:51:15.807Z,9.80
2017-12-14T21:53:43.262Z,7.00
2017-12-14T21:56:10.737Z,4.60
2017-12-14T21:58:39.096Z,7.00
2017-12-14T22:01:06.611Z,14.53
2017-12-14T22:03:34.087Z,10.20
2017-12-14T22:06:01.554Z,4.30
2017-12-14T22:08:29.035Z,8.70
2017-12-14T22:10:56.489Z,12.90
2017-12-14T22:13:24.758Z,15.20
2017-12-14T22:15:53.011Z,3.70
2017-12-14T22:18:20.487Z,3.07
2017-12-14T22:20:47.951Z,4.10
2017-12-14T22:23:15.510Z,10.07
2017-12-14T22:25:42.994Z,13.50
2017-12-14T22:28:11.239Z,7.87
2017-12-14T22:30:38.700Z,6.70
2017-12-14T22:33:06.179Z,6.90
2017-12-14T22:35:33.651Z,9.20
2017-12-14T22:38:01.127Z,8.83
2017-12-14T22:40:28.603Z,5.17
2017-12-14T22:42:56.964Z,4.10
2017-12-14T22:45:24.438Z,5.53
2017-12-14T22:47:51.895Z,3.90
2017-12-14T22:50:19.376Z,3.40
2017-12-14T22:52:52.781Z,4.20
2017-12-14T22:55:21.050Z,4.50
2017-12-14T22:57:48.497Z,3.50
2017-12-14T23:00:16.063Z,5.30
2017-12-14T23:02:44.323Z,4.30
2017-12-14T23:05:11.798Z,4.40
2017-12-14T23:07:40.085Z,5.07
2017-12-14T23:10:08.306Z,4.67
2017-12-14T23:12:35.793Z,4.70
2017-12-14T23:15:03.266Z,4.40
2017-12-14T23:17:31.502Z,4.57
2017-12-14T23:19:58.975Z,4.73
2017-12-14T23:22:26.467Z,4.83
2017-12-14T23:24:53.931Z,5.83
2017-12-14T23:27:21.388Z,5.33
2017-12-14T23:29:48.876Z,6.30
2017-12-14T23:32:16.414Z,6.53
2017-12-14T23:34:43.882Z,6.97
2017-12-14T23:37:11.367Z,6.60
2017-12-14T23:39:38.855Z,7.90
2017-12-14T23:42:07.075Z,7.80
2017-12-14T23:44:34.563Z,7.63
2017-12-14T23:47:02.011Z,7.30
2017-12-14T23:49:29.496Z,7.10
2017-12-14T23:51:57.743Z,7.50
2017-12-14T23:54:25.237Z,7.03
2017-12-14T23:56:53.684Z,8.47
2017-12-14T23:59:21.165Z,8.10
